createdAt,value
2018-05-03T00:00:04.096Z,69.93
2018-05-03T00:01:09.709Z,70.00
2018-05-03T00:02:14.266Z,69.94
2018-05-03T00:03:19.412Z,70.05
2018-05-03T00:04:24.015Z,70.21
2018-05-03T00:05:28.633Z,70.15
2018-05-03T00:06:33.195Z,70.12
2018-05-03T00:07:38.108Z,70.09
2018-05-03T00:08:42.643Z,70.04
2018-05-03T00:09:47.251Z,69.94
2018-05-03T00:10:51.796Z,69.96
2018-05-03T00:11:56.310Z,69.89
2018-05-03T00:13:01.009Z,70.10
2018-05-03T00:14:05.844Z,70.31
2018-05-03T00:15:10.377Z,70.34
2018-05-03T00:16:14.864Z,70.57
2018-05-03T00:17:19.643Z,70.70
2018-05-03T00:18:24.256Z,70.76
2018-05-03T00:19:28.813Z,70.94
2018-05-03T00:20:33.794Z,71.15
2018-05-03T00:21:38.338Z,71.26
2018-05-03T00:22:42.745Z,71.41
2018-05-03T00:23:48.254Z,71.58
2018-05-03T00:24:52.726Z,71.58
2018-05-03T00:25:57.247Z,71.62
2018-05-03T00:27:02.206Z,71.71
2018-05-03T00:28:06.726Z,71.96
2018-05-03T00:29:11.260Z,72.07
2018-05-03T00:30:15.770Z,72.13
2018-05-03T00:31:20.294Z,72.18
2018-05-03T00:32:25.997Z,72.37
2018-05-03T00:33:30.953Z,72.39
2018-05-03T00:34:35.729Z,72.50
2018-05-03T00:35:40.235Z,72.58
2018-05-03T00:36:44.652Z,72.66
2018-05-03T00:37:49.501Z,72.61
2018-05-03T00:38:55.020Z,72.72
2018-05-03T00:40:00.366Z,72.82
2018-05-03T00:41:04.929Z,72.83
2018-05-03T00:42:09.521Z,72.78
2018-05-03T00:43:15.084Z,72.77
2018-05-03T00:44:19.551Z,72.82
2018-05-03T00:45:23.973Z,72.85
2018-05-03T00:46:28.683Z,72.88
2018-05-03T00:47:33.080Z,73.00
2018-05-03T00:48:37.503Z,73.11
2018-05-03T00:49:42.988Z,73.24
2018-05-03T00:50:47.468Z,73.19
2018-05-03T00:51:53.379Z,73.12
2018-05-03T00:52:58.301Z,73.18
2018-05-03T00:54:02.822Z,73.35
2018-05-03T00:55:08.394Z,73.42
2018-05-03T00:56:13.139Z,73.42
2018-05-03T00:57:17.615Z,73.55
2018-05-03T00:58:22.145Z,73.70
2018-05-03T00:59:27.033Z,73.72
2018-05-03T01:00:31.516Z,73.75
2018-05-03T01:01:36.239Z,73.75
2018-05-03T01:02:40.894Z,73.80
2018-05-03T01:03:45.335Z,73.87
2018-05-03T01:04:49.769Z,73.78
2018-05-03T01:05:54.624Z,73.79
2018-05-03T01:06:58.997Z,73.78
2018-05-03T01:08:03.405Z,73.87
2018-05-03T01:09:07.788Z,74.02
2018-05-03T01:10:12.196Z,74.11
2018-05-03T01:11:16.609Z,74.17
2018-05-03T01:12:21.999Z,74.23
2018-05-03T01:13:26.489Z,74.36
2018-05-03T01:14:31.030Z,74.48
2018-05-03T01:15:36.521Z,74.49
2018-05-03T01:16:42.047Z,74.50
2018-05-03T01:17:46.427Z,74.58
2018-05-03T01:18:51.169Z,74.55
2018-05-03T01:19:55.519Z,74.44
2018-05-03T01:20:59.978Z,74.42
2018-05-03T01:22:04.430Z,74.41
2018-05-03T01:23:08.993Z,74.39
2018-05-03T01:24:13.532Z,74.49
2018-05-03T01:25:18.461Z,74.51
2018-05-03T01:26:23.059Z,74.43
2018-05-03T01:27:27.549Z,74.44
2018-05-03T01:28:32.034Z,74.41
2018-05-03T01:29:36.512Z,74.39
2018-05-03T01:30:41.339Z,74.30
2018-05-03T01:31:45.872Z,74.24
2018-05-03T01:32:50.502Z,74.35
2018-05-03T01:33:55.857Z,74.46
2018-05-03T01:35:04.591Z,74.50
2018-05-03T01:36:42.503Z,74.55
2018-05-03T01:37:47.047Z,74.63
2018-05-03T01:38:52.343Z,74.55
2018-05-03T01:39:57.851Z,74.56
2018-05-03T01:41:02.356Z,74.54
2018-05-03T01:42:06.821Z,74.49
2018-05-03T01:43:11.608Z,74.44
2018-05-03T01:44:15.999Z,74.32
2018-05-03T01:45:20.496Z,74.31
2018-05-03T01:46:40.653Z,74.52
2018-05-03T01:47:46.989Z,74.70
2018-05-03T01:48:51.503Z,74.69
2018-05-03T01:49:56.362Z,74.90
2018-05-03T01:51:00.879Z,75.09
2018-05-03T01:52:05.302Z,75.13
2018-05-03T01:53:09.749Z,75.24
2018-05-03T01:54:14.293Z,75.21
2018-05-03T01:55:19.575Z,75.25
2018-05-03T01:56:24.779Z,75.28
2018-05-03T01:57:29.239Z,75.37
2018-05-03T01:58:33.696Z,75.58
2018-05-03T01:59:38.090Z,75.62
2018-05-03T02:00:42.332Z,75.64
2018-05-03T02:01:46.555Z,75.59
2018-05-03T02:02:51.093Z,75.54
2018-05-03T02:03:55.384Z,75.62
2018-05-03T02:04:59.698Z,75.69
2018-05-03T02:06:04.122Z,75.70
2018-05-03T02:07:08.584Z,75.73
2018-05-03T02:08:13.733Z,75.74
2018-05-03T02:09:18.570Z,75.65
2018-05-03T02:10:23.062Z,75.58
2018-05-03T02:11:27.528Z,75.51
2018-05-03T02:12:32.010Z,75.50
2018-05-03T02:13:36.592Z,75.51
2018-05-03T02:14:42.917Z,75.46
2018-05-03T02:15:47.677Z,75.37
2018-05-03T02:16:53.937Z,75.40
2018-05-03T02:17:58.361Z,75.41
2018-05-03T02:19:02.797Z,75.49
2018-05-03T02:20:07.088Z,75.50
2018-05-03T02:21:11.605Z,75.59
2018-05-03T02:22:16.308Z,75.74
2018-05-03T02:23:20.670Z,75.75
2018-05-03T02:24:24.993Z,75.78
2018-05-03T02:25:29.286Z,75.89
2018-05-03T02:26:33.702Z,76.10
2018-05-03T02:27:38.657Z,76.13
2018-05-03T02:28:43.432Z,76.08
2018-05-03T02:29:47.984Z,76.14
2018-05-03T02:30:55.160Z,76.09
2018-05-03T02:31:59.535Z,76.04
2018-05-03T02:33:04.016Z,75.98
2018-05-03T02:34:08.432Z,75.97
2018-05-03T02:35:13.286Z,76.02
2018-05-03T02:36:17.686Z,76.05
2018-05-03T02:37:22.160Z,76.12
2018-05-03T02:38:26.621Z,76.20
2018-05-03T02:39:32.055Z,76.25
2018-05-03T02:40:36.434Z,76.40
2018-05-03T02:41:40.821Z,76.41
2018-05-03T02:42:45.223Z,76.32
2018-05-03T02:43:49.926Z,76.31
2018-05-03T02:44:54.316Z,76.35
2018-05-03T02:45:58.770Z,76.48
2018-05-03T02:47:03.672Z,76.62
2018-05-03T02:48:08.127Z,76.67
2018-05-03T02:49:12.908Z,76.69
2018-05-03T02:50:17.360Z,76.74
2018-05-03T02:51:21.832Z,76.81
2018-05-03T02:52:26.277Z,76.77
2018-05-03T02:53:31.177Z,76.73
2018-05-03T02:54:35.637Z,76.67
2018-05-03T02:55:40.126Z,76.70
2018-05-03T02:56:44.560Z,76.74
2018-05-03T02:57:58.566Z,76.75
2018-05-03T03:01:19.519Z,76.73
2018-05-03T03:04:33.155Z,77.13
2018-05-03T03:07:49.929Z,77.56
2018-05-03T03:11:06.134Z,77.58
2018-05-03T03:14:18.881Z,77.72
2018-05-03T03:17:35.025Z,77.90
2018-05-03T03:18:48.837Z,78.16
2018-05-03T03:19:57.699Z,78.20
2018-05-03T03:21:11.664Z,78.36
2018-05-03T03:24:53.258Z,78.39
2018-05-03T03:26:06.562Z,78.53
2018-05-03T03:27:20.449Z,78.57
2018-05-03T03:30:36.581Z,78.66
2018-05-03T03:33:49.357Z,78.84
2018-05-03T03:34:54.815Z,78.90
2018-05-03T03:36:03.469Z,78.87
2018-05-03T03:37:16.869Z,78.88
2018-05-03T03:38:30.552Z,78.89
2018-05-03T03:41:47.472Z,78.86
2018-05-03T03:42:56.117Z,79.03
2018-05-03T03:45:05.867Z,79.07
2018-05-03T03:46:10.278Z,79.14
2018-05-03T03:47:14.651Z,79.15
2018-05-03T03:48:19.708Z,79.12
2018-05-03T03:49:24.178Z,79.08
2018-05-03T03:50:28.754Z,79.05
2018-05-03T03:51:33.254Z,79.10
2018-05-03T03:52:37.583Z,79.36
2018-05-03T03:53:43.609Z,79.56
2018-05-03T03:54:48.642Z,79.58
2018-05-03T03:55:53.095Z,79.61
2018-05-03T03:56:58.451Z,79.64
2018-05-03T03:58:02.904Z,79.66
2018-05-03T03:59:07.440Z,79.62
2018-05-03T04:00:12.531Z,79.57
2018-05-03T04:01:17.495Z,79.60
2018-05-03T04:02:21.986Z,79.55
2018-05-03T04:03:26.533Z,79.47
2018-05-03T04:04:32.292Z,79.37
2018-05-03T04:05:38.455Z,79.29
2018-05-03T04:06:42.985Z,79.25
2018-05-03T04:07:47.821Z,79.22
2018-05-03T04:08:52.198Z,79.14
2018-05-03T04:09:57.883Z,79.05
2018-05-03T04:11:02.422Z,79.05
2018-05-03T04:12:08.282Z,78.96
2018-05-03T04:13:13.177Z,78.85
2018-05-03T04:14:19.216Z,78.82
2018-05-03T04:15:23.892Z,78.85
2018-05-03T04:16:28.733Z,78.80
2018-05-03T04:17:37.373Z,78.89
2018-05-03T04:18:47.421Z,78.94
2018-05-03T04:20:01.382Z,79.14
2018-05-03T04:23:17.066Z,79.29
2018-05-03T04:26:30.733Z,79.62
2018-05-03T04:27:35.108Z,79.90
2018-05-03T04:28:39.963Z,79.80
2018-05-03T04:29:44.425Z,79.60
2018-05-03T04:30:49.141Z,79.52
2018-05-03T04:31:53.498Z,79.46
2018-05-03T04:32:58.462Z,79.52
2018-05-03T04:34:05.044Z,79.62
2018-05-03T04:35:10.717Z,79.67
2018-05-03T04:36:15.218Z,79.72
2018-05-03T04:37:19.985Z,79.66
2018-05-03T04:38:24.453Z,79.64
2018-05-03T04:39:29.483Z,79.56
2018-05-03T04:40:34.247Z,79.58
2018-05-03T04:41:38.632Z,79.60
2018-05-03T04:42:44.282Z,79.63
2018-05-03T04:43:49.086Z,79.62
2018-05-03T04:44:54.039Z,79.64
2018-05-03T04:45:58.931Z,79.58
2018-05-03T04:47:03.630Z,79.49
2018-05-03T04:48:08.178Z,79.56
2018-05-03T04:49:12.964Z,79.44
2018-05-03T04:50:18.262Z,79.30
2018-05-03T04:51:22.690Z,79.15
2018-05-03T04:52:27.162Z,79.03
2018-05-03T04:53:31.672Z,78.87
2018-05-03T04:54:36.071Z,79.10
2018-05-03T04:55:40.508Z,79.35
2018-05-03T04:56:45.239Z,79.52
2018-05-03T04:57:49.603Z,79.65
2018-05-03T04:58:54.018Z,79.66
2018-05-03T04:59:58.446Z,79.59
2018-05-03T05:01:02.844Z,79.59
2018-05-03T05:02:07.306Z,79.53
2018-05-03T05:03:12.524Z,79.42
2018-05-03T05:04:17.023Z,79.36
2018-05-03T05:05:21.427Z,79.24
2018-05-03T05:06:26.852Z,79.02
2018-05-03T05:07:31.340Z,79.09
2018-05-03T05:08:35.867Z,78.98
2018-05-03T05:09:40.662Z,78.99
2018-05-03T05:10:45.134Z,79.03
2018-05-03T05:11:49.953Z,79.01
2018-05-03T05:12:54.496Z,78.98
2018-05-03T05:13:59.940Z,79.02
2018-05-03T05:15:04.437Z,79.12
2018-05-03T05:16:10.027Z,79.17
2018-05-03T05:17:15.133Z,79.10
2018-05-03T05:18:19.885Z,79.15
2018-05-03T05:19:24.462Z,79.26
2018-05-03T05:20:28.946Z,79.40
2018-05-03T05:21:33.506Z,79.48
2018-05-03T05:22:38.384Z,79.57
2018-05-03T05:23:43.947Z,79.60
2018-05-03T05:24:48.762Z,79.63
2018-05-03T05:25:53.216Z,79.70
2018-05-03T05:26:58.714Z,79.72
2018-05-03T05:28:03.064Z,79.73
2018-05-03T05:29:08.106Z,79.68
2018-05-03T05:30:12.474Z,79.69
2018-05-03T05:31:16.803Z,79.68
2018-05-03T05:32:21.353Z,79.70
2018-05-03T05:33:25.796Z,79.73
2018-05-03T05:34:30.271Z,79.80
2018-05-03T05:35:34.979Z,79.69
2018-05-03T05:36:39.967Z,79.65
2018-05-03T05:37:44.400Z,79.53
2018-05-03T05:38:48.876Z,79.40
2018-05-03T05:39:53.281Z,79.29
2018-05-03T05:40:57.733Z,79.11
2018-05-03T05:42:02.053Z,79.13
2018-05-03T05:43:06.546Z,79.19
2018-05-03T05:44:12.048Z,79.20
2018-05-03T05:45:18.125Z,79.20
2018-05-03T05:46:22.497Z,79.17
2018-05-03T05:47:27.245Z,79.16
2018-05-03T05:48:31.547Z,79.06
2018-05-03T05:49:36.015Z,79.07
2018-05-03T05:50:40.446Z,79.08
2018-05-03T05:51:44.965Z,79.10
2018-05-03T05:52:49.371Z,79.06
2018-05-03T05:53:54.223Z,79.04
2018-05-03T05:54:58.638Z,79.01
2018-05-03T05:56:03.055Z,78.96
2018-05-03T05:57:07.498Z,78.89
2018-05-03T05:58:11.939Z,78.90
2018-05-03T05:59:16.548Z,78.88
2018-05-03T06:00:21.428Z,78.88
2018-05-03T06:01:25.944Z,78.89
2018-05-03T06:02:30.465Z,78.78
2018-05-03T06:03:35.089Z,78.62
2018-05-03T06:04:39.679Z,78.39
2018-05-03T06:05:44.224Z,78.36
2018-05-03T06:06:49.153Z,78.38
2018-05-03T06:07:53.686Z,78.19
2018-05-03T06:08:58.533Z,78.08
2018-05-03T06:10:03.679Z,77.97
2018-05-03T06:11:08.180Z,77.96
2018-05-03T06:12:12.842Z,78.01
2018-05-03T06:13:17.708Z,78.04
2018-05-03T06:14:22.249Z,78.08
2018-05-03T06:15:26.913Z,78.07
2018-05-03T06:16:31.527Z,78.04
2018-05-03T06:17:36.157Z,77.87
2018-05-03T06:18:40.610Z,77.75
2018-05-03T06:19:46.183Z,77.69
2018-05-03T06:20:50.980Z,77.59
2018-05-03T06:21:56.821Z,77.51
2018-05-03T06:23:01.429Z,77.38
2018-05-03T06:24:07.443Z,77.25
2018-05-03T06:25:13.969Z,77.26
2018-05-03T06:26:19.551Z,77.16
2018-05-03T06:27:24.030Z,76.99
2018-05-03T06:28:29.785Z,77.01
2018-05-03T06:29:34.355Z,77.09
2018-05-03T06:30:39.233Z,77.10
2018-05-03T06:31:43.710Z,77.07
2018-05-03T06:32:48.525Z,77.09
2018-05-03T06:33:53.022Z,77.11
2018-05-03T06:34:57.513Z,77.05
2018-05-03T06:36:01.979Z,77.00
2018-05-03T06:37:06.921Z,77.01
2018-05-03T06:38:11.675Z,77.07
2018-05-03T06:39:16.464Z,77.08
2018-05-03T06:40:23.108Z,76.99
2018-05-03T06:41:28.322Z,76.95
2018-05-03T06:42:32.928Z,76.93
2018-05-03T06:43:37.563Z,77.06
2018-05-03T06:44:42.477Z,77.18
2018-05-03T06:45:47.521Z,77.18
2018-05-03T06:46:52.156Z,77.05
2018-05-03T06:47:56.689Z,77.08
2018-05-03T06:49:01.251Z,77.10
2018-05-03T06:50:06.476Z,77.09
2018-05-03T06:51:11.272Z,77.11
2018-05-03T06:52:16.135Z,77.06
2018-05-03T06:53:20.581Z,76.97
2018-05-03T06:54:26.459Z,76.94
2018-05-03T06:55:30.946Z,76.93
2018-05-03T06:56:35.684Z,76.79
2018-05-03T06:57:40.282Z,76.79
2018-05-03T06:58:45.625Z,76.77
2018-05-03T06:59:50.083Z,76.79
2018-05-03T07:00:54.793Z,76.72
2018-05-03T07:01:59.195Z,76.58
2018-05-03T07:03:03.588Z,76.42
2018-05-03T07:04:08.400Z,76.47
2018-05-03T07:05:14.363Z,76.51
2018-05-03T07:06:18.827Z,76.36
2018-05-03T07:07:23.286Z,76.23
2018-05-03T07:08:28.175Z,76.06
2018-05-03T07:09:32.676Z,75.99
2018-05-03T07:10:37.131Z,75.76
2018-05-03T07:11:41.654Z,75.58
2018-05-03T07:12:46.067Z,75.31
2018-05-03T07:13:50.660Z,75.20
2018-05-03T07:14:55.254Z,75.19
2018-05-03T07:15:59.878Z,75.18
2018-05-03T07:17:04.821Z,75.07
2018-05-03T07:18:10.339Z,74.88
2018-05-03T07:19:14.872Z,74.62
2018-05-03T07:20:20.001Z,74.31
2018-05-03T07:21:24.528Z,73.91
2018-05-03T07:22:31.021Z,73.80
2018-05-03T07:23:37.059Z,73.59
2018-05-03T07:24:41.502Z,73.37
2018-05-03T07:25:46.961Z,73.21
2018-05-03T07:26:51.418Z,73.11
2018-05-03T07:27:55.906Z,73.17
2018-05-03T07:29:00.395Z,72.92
2018-05-03T07:30:06.207Z,72.21
2018-05-03T07:31:11.447Z,71.57
2018-05-03T07:32:17.622Z,71.20
2018-05-03T07:33:22.187Z,70.90
2018-05-03T07:34:26.727Z,70.83
2018-05-03T07:35:31.271Z,70.61
2018-05-03T07:36:36.023Z,70.25
2018-05-03T07:37:40.546Z,69.93
2018-05-03T07:38:44.995Z,69.96
2018-05-03T07:39:49.641Z,70.29
2018-05-03T07:40:54.480Z,70.23
2018-05-03T07:41:59.984Z,69.72
2018-05-03T07:43:06.005Z,69.44
2018-05-03T07:44:10.713Z,69.25
2018-05-03T07:45:15.292Z,69.10
2018-05-03T07:46:21.076Z,69.04
2018-05-03T07:47:25.651Z,68.99
2018-05-03T07:48:32.531Z,68.65
2018-05-03T07:49:37.327Z,68.37
2018-05-03T07:50:41.933Z,67.95
2018-05-03T07:51:46.573Z,67.37
2018-05-03T07:52:51.136Z,66.82
2018-05-03T07:53:55.806Z,66.63
2018-05-03T07:55:02.207Z,66.12
2018-05-03T07:56:06.864Z,65.62
2018-05-03T07:57:11.428Z,65.25
2018-05-03T07:58:15.870Z,64.69
2018-05-03T07:59:20.729Z,64.27
2018-05-03T08:00:25.654Z,63.95
2018-05-03T08:01:31.351Z,63.58
2018-05-03T08:02:35.914Z,63.36
2018-05-03T08:03:40.383Z,63.29
2018-05-03T08:04:45.374Z,62.90
2018-05-03T08:05:50.128Z,62.32
2018-05-03T08:06:56.498Z,62.28
2018-05-03T08:08:01.514Z,62.11
2018-05-03T08:09:07.116Z,61.91
2018-05-03T08:10:11.789Z,61.57
2018-05-03T08:11:16.353Z,61.27
2018-05-03T08:12:21.983Z,60.88
2018-05-03T08:13:26.716Z,60.20
2018-05-03T08:14:32.296Z,59.84
2018-05-03T08:15:36.873Z,59.55
2018-05-03T08:16:41.679Z,58.73
2018-05-03T08:17:47.581Z,58.20
2018-05-03T08:18:52.486Z,57.60
2018-05-03T08:19:57.761Z,57.02
2018-05-03T08:21:03.140Z,56.62
2018-05-03T08:22:09.694Z,56.41
2018-05-03T08:23:15.053Z,55.89
2018-05-03T08:24:19.677Z,55.98
2018-05-03T08:25:24.285Z,55.70
2018-05-03T08:26:29.971Z,55.22
2018-05-03T08:27:36.626Z,54.80
2018-05-03T08:28:41.607Z,54.22
2018-05-03T08:29:46.354Z,54.14
2018-05-03T08:30:51.328Z,54.32
2018-05-03T08:31:55.985Z,54.56
2018-05-03T08:33:00.591Z,54.55
2018-05-03T08:34:05.897Z,54.67
2018-05-03T08:35:10.372Z,54.53
2018-05-03T08:36:15.255Z,54.19
2018-05-03T08:37:20.291Z,53.87
2018-05-03T08:38:26.301Z,53.61
2018-05-03T08:39:30.765Z,53.20
2018-05-03T08:40:35.802Z,52.70
2018-05-03T08:41:40.623Z,52.59
2018-05-03T08:42:45.233Z,52.48
2018-05-03T08:43:49.851Z,52.47
2018-05-03T08:44:54.457Z,52.40
2018-05-03T08:45:59.527Z,52.14
2018-05-03T08:47:04.804Z,52.30
2018-05-03T08:48:09.334Z,52.39
2018-05-03T08:49:13.960Z,52.47
2018-05-03T08:50:18.803Z,52.51
2018-05-03T08:51:23.458Z,52.44
2018-05-03T08:52:29.396Z,51.50
2018-05-03T08:53:33.992Z,51.01
2018-05-03T08:54:38.654Z,50.63
2018-05-03T08:55:43.339Z,50.11
2018-05-03T08:56:47.797Z,49.39
2018-05-03T08:57:52.296Z,49.13
2018-05-03T08:58:57.277Z,48.71
2018-05-03T09:00:01.939Z,48.18
2018-05-03T09:01:06.617Z,47.74
2018-05-03T09:02:11.090Z,47.29
2018-05-03T09:03:15.610Z,46.96
2018-05-03T09:04:20.281Z,47.15
2018-05-03T09:05:24.778Z,47.30
2018-05-03T09:06:46.120Z,46.95
2018-05-03T09:07:51.457Z,47.19
2018-05-03T09:08:56.021Z,46.94
2018-05-03T09:10:00.625Z,47.28
2018-05-03T09:11:05.598Z,47.03
2018-05-03T09:12:10.230Z,46.80
2018-05-03T09:13:14.879Z,46.25
2018-05-03T09:14:19.500Z,45.83
2018-05-03T09:15:24.198Z,45.75
2018-05-03T09:16:28.776Z,45.74
2018-05-03T09:17:33.796Z,45.64
2018-05-03T09:18:38.369Z,45.47
2018-05-03T09:19:43.332Z,45.36
2018-05-03T09:20:47.837Z,44.98
2018-05-03T09:21:52.751Z,44.45
2018-05-03T09:22:57.402Z,43.76
2018-05-03T09:24:01.995Z,43.61
2018-05-03T09:25:06.821Z,43.71
2018-05-03T09:26:11.345Z,43.83
2018-05-03T09:27:15.913Z,43.93
2018-05-03T09:28:20.445Z,43.53
2018-05-03T09:29:25.253Z,43.94
2018-05-03T09:30:29.765Z,44.28
2018-05-03T09:31:34.260Z,44.27
2018-05-03T09:32:38.842Z,44.48
2018-05-03T09:33:43.487Z,44.99
2018-05-03T09:34:48.127Z,45.44
2018-05-03T09:35:53.244Z,45.74
2018-05-03T09:36:57.888Z,45.47
2018-05-03T09:38:02.987Z,45.35
2018-05-03T09:39:07.611Z,44.89
2018-05-03T09:40:13.206Z,44.05
2018-05-03T09:41:17.784Z,44.18
2018-05-03T09:42:22.705Z,43.80
2018-05-03T09:43:27.317Z,43.60
2018-05-03T09:44:31.853Z,43.16
2018-05-03T09:45:37.384Z,42.70
2018-05-03T09:46:42.058Z,42.69
2018-05-03T09:47:46.654Z,42.66
2018-05-03T09:48:51.685Z,42.44
2018-05-03T09:49:56.331Z,41.99
2018-05-03T09:51:00.888Z,41.54
2018-05-03T09:52:05.494Z,41.29
2018-05-03T09:53:10.082Z,41.33
2018-05-03T09:54:14.648Z,40.95
2018-05-03T09:55:20.064Z,40.42
2018-05-03T09:56:24.651Z,40.07
2018-05-03T09:57:29.218Z,39.93
2018-05-03T09:58:33.695Z,39.50
2018-05-03T09:59:38.204Z,39.20
2018-05-03T10:00:42.724Z,38.99
2018-05-03T10:01:47.217Z,38.77
2018-05-03T10:02:51.732Z,38.61
2018-05-03T10:03:56.266Z,38.47
2018-05-03T10:05:00.781Z,38.54
2018-05-03T10:06:05.606Z,38.31
2018-05-03T10:07:10.410Z,38.07
2018-05-03T10:08:14.943Z,38.15
2018-05-03T10:09:19.452Z,38.17
2018-05-03T10:10:24.005Z,38.36
2018-05-03T10:11:28.473Z,38.34
2018-05-03T10:12:33.243Z,38.29
2018-05-03T10:13:37.892Z,38.58
2018-05-03T10:14:42.395Z,38.48
2018-05-03T10:15:46.841Z,38.77
2018-05-03T10:16:51.351Z,38.66
2018-05-03T10:17:55.855Z,38.11
2018-05-03T10:19:00.630Z,37.89
2018-05-03T10:20:05.217Z,37.84
2018-05-03T10:21:09.653Z,37.81
2018-05-03T10:22:14.447Z,37.81
2018-05-03T10:23:19.084Z,38.03
2018-05-03T10:24:23.645Z,37.80
2018-05-03T10:25:28.517Z,37.40
2018-05-03T10:26:33.085Z,37.14
2018-05-03T10:27:41.257Z,36.72
2018-05-03T10:28:45.924Z,36.45
2018-05-03T10:29:50.554Z,36.09
2018-05-03T10:30:55.492Z,36.13
2018-05-03T10:32:00.011Z,36.50
2018-05-03T10:33:04.511Z,36.58
2018-05-03T10:34:08.967Z,36.67
2018-05-03T10:35:13.522Z,36.37
2018-05-03T10:36:18.046Z,36.03
2018-05-03T10:37:22.739Z,36.20
2018-05-03T10:38:27.152Z,36.26
2018-05-03T10:39:31.527Z,36.17
2018-05-03T10:40:35.883Z,36.26
2018-05-03T10:41:40.221Z,36.34
2018-05-03T10:42:44.698Z,36.51
2018-05-03T10:43:49.737Z,36.42
2018-05-03T10:44:54.395Z,36.29
2018-05-03T10:45:59.033Z,36.49
2018-05-03T10:47:03.831Z,36.51
2018-05-03T10:48:08.526Z,36.41
2018-05-03T10:49:13.171Z,36.27
2018-05-03T10:50:17.784Z,36.45
2018-05-03T10:51:22.452Z,36.38
2018-05-03T10:52:27.008Z,36.38
2018-05-03T10:53:31.640Z,36.40
2018-05-03T10:54:36.176Z,36.23
2018-05-03T10:55:41.138Z,36.22
2018-05-03T10:56:45.797Z,36.25
2018-05-03T10:57:50.385Z,36.25
2018-05-03T10:58:55.048Z,36.01
2018-05-03T10:59:59.623Z,35.46
2018-05-03T11:01:04.100Z,35.60
2018-05-03T11:02:09.014Z,35.98
2018-05-03T11:03:13.645Z,35.89
2018-05-03T11:04:18.238Z,35.49
2018-05-03T11:05:23.024Z,35.23
2018-05-03T11:06:27.724Z,35.41
2018-05-03T11:07:32.280Z,35.50
2018-05-03T11:08:37.464Z,35.57
2018-05-03T11:09:42.045Z,35.29
2018-05-03T11:10:46.618Z,35.21
2018-05-03T11:11:51.275Z,35.42
2018-05-03T11:12:55.835Z,35.38
2018-05-03T11:14:00.383Z,35.32
2018-05-03T11:15:05.446Z,34.96
2018-05-03T11:16:09.988Z,35.06
2018-05-03T11:17:15.049Z,34.92
2018-05-03T11:18:19.541Z,34.72
2018-05-03T11:19:24.093Z,34.85
2018-05-03T11:20:28.565Z,34.69
2018-05-03T11:21:34.279Z,34.64
2018-05-03T11:22:38.800Z,34.70
2018-05-03T11:23:43.293Z,34.50
2018-05-03T11:24:47.769Z,34.65
2018-05-03T11:25:52.386Z,34.53
2018-05-03T11:26:56.964Z,34.19
2018-05-03T11:28:01.814Z,34.29
2018-05-03T11:29:06.513Z,34.51
2018-05-03T11:30:11.075Z,34.18
2018-05-03T11:31:15.714Z,33.87
2018-05-03T11:32:20.293Z,33.81
2018-05-03T11:33:24.933Z,33.62
2018-05-03T11:34:29.929Z,33.01
2018-05-03T11:35:34.631Z,32.74
2018-05-03T11:36:39.213Z,32.80
2018-05-03T11:37:44.021Z,32.79
2018-05-03T11:38:48.524Z,32.90
2018-05-03T11:39:53.133Z,32.88
2018-05-03T11:40:58.117Z,32.82
2018-05-03T11:42:03.457Z,32.76
2018-05-03T11:43:07.926Z,32.86
2018-05-03T11:44:12.545Z,32.78
2018-05-03T11:45:17.151Z,32.78
2018-05-03T11:46:21.667Z,32.43
2018-05-03T11:47:26.569Z,32.68
2018-05-03T11:48:31.105Z,32.60
2018-05-03T11:49:35.701Z,32.48
2018-05-03T11:50:40.551Z,32.48
2018-05-03T11:51:45.061Z,32.31
2018-05-03T11:52:49.630Z,32.46
2018-05-03T11:53:54.639Z,32.77
2018-05-03T11:54:59.195Z,32.67
2018-05-03T11:56:03.537Z,32.47
2018-05-03T11:57:08.027Z,32.59
2018-05-03T11:58:12.608Z,32.61
2018-05-03T11:59:17.216Z,32.71
2018-05-03T12:00:22.234Z,32.73
2018-05-03T12:01:26.892Z,32.72
2018-05-03T12:02:31.616Z,32.55
2018-05-03T12:03:36.657Z,32.48
2018-05-03T12:04:41.409Z,32.40
2018-05-03T12:05:45.895Z,32.28
2018-05-03T12:06:50.757Z,32.18
2018-05-03T12:07:55.436Z,31.86
2018-05-03T12:08:59.993Z,31.64
2018-05-03T12:10:04.620Z,31.86
2018-05-03T12:11:09.219Z,32.09
2018-05-03T12:12:13.745Z,31.84
2018-05-03T12:13:19.073Z,31.92
2018-05-03T12:14:23.560Z,31.88
2018-05-03T12:15:28.062Z,31.92
2018-05-03T12:16:33.230Z,31.83
2018-05-03T12:17:38.036Z,31.87
2018-05-03T12:18:44.534Z,31.73
2018-05-03T12:19:48.997Z,31.26
2018-05-03T12:20:53.463Z,31.20
2018-05-03T12:21:58.134Z,31.18
2018-05-03T12:23:03.426Z,31.20
2018-05-03T12:24:08.054Z,31.16
2018-05-03T12:25:13.153Z,31.13
2018-05-03T12:26:17.743Z,31.21
2018-05-03T12:27:22.383Z,30.99
2018-05-03T12:28:27.097Z,30.95
2018-05-03T12:29:31.982Z,31.12
2018-05-03T12:30:36.572Z,31.05
2018-05-03T12:31:42.442Z,30.83
2018-05-03T12:32:47.109Z,30.72
2018-05-03T12:33:51.684Z,30.81
2018-05-03T12:34:56.176Z,30.68
2018-05-03T12:36:00.727Z,30.30
2018-05-03T12:37:05.230Z,30.60
2018-05-03T12:38:10.195Z,30.72
2018-05-03T12:39:14.722Z,30.72
2018-05-03T12:40:19.260Z,30.86
2018-05-03T12:41:23.784Z,31.13
2018-05-03T12:42:28.341Z,30.88
2018-05-03T12:43:32.969Z,30.95
2018-05-03T12:44:38.062Z,30.89
2018-05-03T12:45:42.661Z,31.00
2018-05-03T12:46:47.169Z,31.02
2018-05-03T12:47:51.730Z,30.69
2018-05-03T12:48:56.265Z,30.49
2018-05-03T12:50:00.759Z,30.28
2018-05-03T12:51:05.616Z,30.19
2018-05-03T12:52:10.174Z,30.09
2018-05-03T12:53:14.516Z,29.83
2018-05-03T12:54:18.897Z,29.61
2018-05-03T12:55:23.352Z,29.83
2018-05-03T12:56:27.827Z,29.76
2018-05-03T12:57:32.584Z,29.71
2018-05-03T12:58:36.960Z,29.52
2018-05-03T12:59:41.395Z,29.80
2018-05-03T13:00:46.043Z,29.76
2018-05-03T13:01:50.753Z,29.45
2018-05-03T13:02:55.222Z,29.37
2018-05-03T13:04:00.160Z,29.32
2018-05-03T13:05:05.650Z,29.07
2018-05-03T13:06:10.290Z,28.87
2018-05-03T13:07:14.777Z,28.95
2018-05-03T13:08:19.268Z,28.79
2018-05-03T13:09:23.635Z,28.70
2018-05-03T13:10:28.657Z,28.69
2018-05-03T13:11:33.112Z,28.94
2018-05-03T13:12:37.510Z,28.74
2018-05-03T13:13:41.837Z,28.47
2018-05-03T13:14:46.348Z,28.26
2018-05-03T13:15:50.801Z,28.21
2018-05-03T13:16:55.474Z,28.27
2018-05-03T13:18:00.004Z,28.11
2018-05-03T13:19:04.524Z,28.07
2018-05-03T13:20:09.080Z,27.89
2018-05-03T13:21:14.324Z,27.84
2018-05-03T13:22:19.138Z,27.84
2018-05-03T13:23:23.609Z,27.82
2018-05-03T13:24:28.197Z,27.65
2018-05-03T13:25:32.731Z,27.55
2018-05-03T13:26:37.248Z,27.54
2018-05-03T13:27:41.803Z,27.32
2018-05-03T13:28:46.700Z,27.38
2018-05-03T13:29:51.183Z,27.50
2018-05-03T13:30:55.695Z,27.38
2018-05-03T13:32:00.195Z,27.32
2018-05-03T13:33:04.670Z,26.94
2018-05-03T13:34:09.271Z,26.75
2018-05-03T13:35:14.149Z,26.49
2018-05-03T13:36:18.645Z,26.41
2018-05-03T13:37:23.152Z,27.15
2018-05-03T13:38:27.677Z,27.92
2018-05-03T13:39:32.499Z,28.51
2018-05-03T13:40:37.252Z,28.47
2018-05-03T13:41:42.170Z,28.12
2018-05-03T13:42:46.717Z,27.95
2018-05-03T13:43:51.162Z,28.19
2018-05-03T13:44:55.664Z,28.31
2018-05-03T13:46:00.208Z,28.39
2018-05-03T13:47:04.713Z,28.23
2018-05-03T13:48:09.556Z,28.34
2018-05-03T13:49:14.054Z,28.27
2018-05-03T13:50:18.512Z,28.09
2018-05-03T13:51:24.086Z,28.24
2018-05-03T13:52:28.593Z,28.50
2018-05-03T13:53:33.081Z,28.60
2018-05-03T13:54:40.433Z,28.58
2018-05-03T13:55:47.205Z,28.54
2018-05-03T13:56:52.001Z,28.42
2018-05-03T13:57:56.529Z,28.19
2018-05-03T13:59:02.718Z,28.14
2018-05-03T14:00:07.514Z,27.96
2018-05-03T14:01:12.091Z,27.95
2018-05-03T14:02:16.657Z,28.03
2018-05-03T14:03:21.261Z,28.01
2018-05-03T14:04:25.759Z,28.02
2018-05-03T14:05:30.330Z,27.86
2018-05-03T14:06:34.859Z,27.94
2018-05-03T14:07:39.314Z,27.73
2018-05-03T14:08:43.796Z,27.53
2018-05-03T14:09:48.335Z,27.40
2018-05-03T14:10:52.915Z,27.41
2018-05-03T14:11:57.988Z,27.22
2018-05-03T14:13:02.686Z,27.25
2018-05-03T14:14:07.846Z,27.44
2018-05-03T14:15:12.420Z,27.08
2018-05-03T14:16:17.022Z,27.23
2018-05-03T14:17:21.669Z,27.15
2018-05-03T14:18:26.670Z,27.10
2018-05-03T14:19:31.348Z,26.88
2018-05-03T14:20:35.912Z,27.13
2018-05-03T14:21:40.430Z,26.86
2018-05-03T14:22:44.958Z,26.84
2018-05-03T14:23:49.464Z,26.90